Decoded Metar for KDUJ (DU BOIS in PA, USA) (IATA:DUJ) | Meteo·Mobile Aviation Weather
aviador You're here:

KDUJ Decoded Metar

DU BOIS in PA, USA
Report Time2018-12-14 10:53:00
UTC Time2018-12-14 11:54:47
Flight Rules mvfr MVFR
Wind130° at 10 kt
W.Decomp.*RWY 07: 3.4 kt HW 9.4 kt RCW
W.Rank130° ranks 6
Current wind is above 130° avg. (7.5)
Visibility8047 m
Phenomena:Mist
Clouds:N/A
Expected CloudBase > 1,200 ft AGL from Temp-Dew spread
CeilingNone
Temp01°C (ISA -10)
Dew Point-2°C (81% RH)
AAT-4.8°C
QNH1024 hPa
Density Alt262 ft
Elevation1,818 ft
Report Wrong Elevation
Raw Report
KDUJ 141053Z AUTO 13010KT 5SM BR CLR 01/M02 A3024 RMK AO2 SLP258
T00061017=

Extra information for KDUJ:More info

Metar Taf Metar & Taf Last 4 Metars F.Rules Stats Wind Profile Meteogram Temp Stats Airport Information Weather charts Add Link Nearby VenuesMetar ALERT Operation Metar Decoded Social comments

AIRNAV info for KDUJ